UAL2087 KDEN-KIAD
Flight info
| Callsign | UAL2087 |
|---|---|
| Flight time | 2h 44m |
| Altitude | 35000 |
| Route | EMMYS8 ZIRKL PWE SPI J80 VHP APE MGW GIBBZ5 |
| Aircraft | B753/M-SDE3FGHIM3RWXY/LB1 |
Departure
| Time | 2026-05-06 16:14 |
|---|---|
| Airport | Denver International Airport (KDEN) |
Arrival
| Time | 2026-05-06 18:59 |
|---|---|
| Airport | Washington Dulles International Airport (KIAD) |
| Time | Latitude | Longitude | Altitude | Speed | Heading |
|---|---|---|---|---|---|
| 2026-05-06 15:52 | 39.85938 | -104.67507 | 5382 ft | 0 kts | 180° |
| 2026-05-06 16:00 | 39.85946 | -104.67507 | 5381 ft | 2 kts | 180° |
| 2026-05-06 16:01 | 39.85961 | -104.67507 | 5381 ft | 2 kts | 180° |
| 2026-05-06 16:01 | 39.85976 | -104.67507 | 5381 ft | 2 kts | 180° |
| 2026-05-06 16:01 | 39.85991 | -104.67507 | 5381 ft | 2 kts | 180° |
| 2026-05-06 16:01 | 39.86007 | -104.67507 | 5381 ft | 2 kts | 180° |
| 2026-05-06 16:02 | 39.86022 | -104.67507 | 5381 ft | 2 kts | 180° |
| 2026-05-06 16:02 | 39.86032 | -104.67507 | 5381 ft | 0 kts | 180° |
| 2026-05-06 16:04 | 39.86025 | -104.67510 | 5381 ft | 4 kts | 204° |
| 2026-05-06 16:04 | 39.86013 | -104.67558 | 5381 ft | 7 kts | 269° |
| 2026-05-06 16:04 | 39.86013 | -104.67642 | 5381 ft | 10 kts | 270° |
| 2026-05-06 16:04 | 39.86013 | -104.67734 | 5381 ft | 9 kts | 269° |
| 2026-05-06 16:05 | 39.86014 | -104.67877 | 5381 ft | 19 kts | 270° |
| 2026-05-06 16:05 | 39.86016 | -104.68045 | 5381 ft | 16 kts | 271° |
| 2026-05-06 16:05 | 39.86011 | -104.68166 | 5380 ft | 9 kts | 248° |
| 2026-05-06 16:05 | 39.85966 | -104.68194 | 5379 ft | 7 kts | 180° |
| 2026-05-06 16:06 | 39.85798 | -104.68189 | 5379 ft | 7 kts | 170° |
| 2026-05-06 16:06 | 39.85738 | -104.68100 | 5381 ft | 20 kts | 90° |
| 2026-05-06 16:06 | 39.85716 | -104.66577 | 5381 ft | 16 kts | 88° |
| 2026-05-06 16:06 | 39.85784 | -104.66489 | 5381 ft | 13 kts | 11° |
| 2026-05-06 16:07 | 39.86278 | -104.66509 | 5380 ft | 21 kts | 357° |
| 2026-05-06 16:07 | 39.86435 | -104.66517 | 5379 ft | 16 kts | 337° |
| 2026-05-06 16:07 | 39.86507 | -104.66624 | 5377 ft | 14 kts | 301° |
| 2026-05-06 16:07 | 39.86565 | -104.66684 | 5377 ft | 7 kts | 349° |
| 2026-05-06 16:08 | 39.86594 | -104.66684 | 5376 ft | 0 kts | 2° |
| 2026-05-06 16:09 | 39.86603 | -104.66684 | 5376 ft | 3 kts | 4° |
| 2026-05-06 16:09 | 39.86634 | -104.66652 | 5375 ft | 3 kts | 76° |
| 2026-05-06 16:10 | 39.86624 | -104.66585 | 5375 ft | 10 kts | 107° |
| 2026-05-06 16:10 | 39.86597 | -104.66482 | 5376 ft | 12 kts | 105° |
| 2026-05-06 16:10 | 39.86592 | -104.66389 | 5379 ft | 7 kts | 88° |
| 2026-05-06 16:10 | 39.86592 | -104.66331 | 5381 ft | 9 kts | 91° |
| 2026-05-06 16:11 | 39.86599 | -104.66250 | 5384 ft | 7 kts | 56° |
| 2026-05-06 16:11 | 39.86651 | -104.66223 | 5383 ft | 11 kts | 1° |
| 2026-05-06 16:11 | 39.86744 | -104.66222 | 5380 ft | 14 kts | 0° |
| 2026-05-06 16:11 | 39.86878 | -104.66222 | 5374 ft | 22 kts | 0° |
| 2026-05-06 16:12 | 39.87042 | -104.66219 | 5368 ft | 24 kts | 1° |
| 2026-05-06 16:12 | 39.87206 | -104.66216 | 5365 ft | 23 kts | 0° |
| 2026-05-06 16:12 | 39.87366 | -104.66215 | 5362 ft | 23 kts | 0° |
| 2026-05-06 16:12 | 39.87528 | -104.66214 | 5358 ft | 23 kts | 359° |
| 2026-05-06 16:13 | 39.87682 | -104.66212 | 5358 ft | 21 kts | 0° |
| 2026-05-06 16:13 | 39.87754 | -104.66126 | 5358 ft | 13 kts | 83° |
| 2026-05-06 16:13 | 39.87758 | -104.65925 | 5358 ft | 39 kts | 92° |
| 2026-05-06 16:13 | 39.87752 | -104.65283 | 5352 ft | 103 kts | 91° |
| 2026-05-06 16:14 | 39.87741 | -104.64081 | 5335 ft | 161 kts | 90° |
| 2026-05-06 16:14 | 39.87714 | -104.62434 | 5495 ft | 196 kts | 88° |
| 2026-05-06 16:14 | 39.87702 | -104.60649 | 6298 ft | 198 kts | 88° |
| 2026-05-06 16:14 | 39.87700 | -104.58853 | 6754 ft | 212 kts | 88° |
| 2026-05-06 16:15 | 39.87671 | -104.56828 | 7161 ft | 234 kts | 90° |
| 2026-05-06 16:15 | 39.87640 | -104.54643 | 7736 ft | 252 kts | 90° |
| 2026-05-06 16:15 | 39.87610 | -104.52298 | 8278 ft | 269 kts | 90° |
| 2026-05-06 16:15 | 39.87577 | -104.49804 | 8932 ft | 282 kts | 89° |
| 2026-05-06 16:16 | 39.87544 | -104.47276 | 9881 ft | 284 kts | 90° |
| 2026-05-06 16:16 | 39.87509 | -104.44631 | 9983 ft | 297 kts | 89° |
| 2026-05-06 16:16 | 39.87473 | -104.42003 | 9983 ft | 284 kts | 91° |
| 2026-05-06 16:16 | 39.87448 | -104.39456 | 9977 ft | 279 kts | 89° |
| 2026-05-06 16:17 | 39.87439 | -104.36862 | 10280 ft | 294 kts | 89° |
| 2026-05-06 16:17 | 39.87428 | -104.34153 | 10844 ft | 311 kts | 90° |
| 2026-05-06 16:17 | 39.87415 | -104.31198 | 11286 ft | 332 kts | 90° |
| 2026-05-06 16:17 | 39.87403 | -104.28103 | 11659 ft | 353 kts | 90° |
| 2026-05-06 16:18 | 39.87386 | -104.24848 | 12259 ft | 364 kts | 90° |
| 2026-05-06 16:18 | 39.87366 | -104.21535 | 13042 ft | 371 kts | 90° |
| 2026-05-06 16:18 | 39.87352 | -104.18158 | 13804 ft | 377 kts | 91° |
| 2026-05-06 16:18 | 39.87329 | -104.14728 | 14498 ft | 385 kts | 90° |
| 2026-05-06 16:19 | 39.87307 | -104.11225 | 15257 ft | 390 kts | 90° |
| 2026-05-06 16:19 | 39.87285 | -104.07663 | 15857 ft | 399 kts | 90° |
| 2026-05-06 16:19 | 39.87260 | -104.04025 | 16575 ft | 405 kts | 90° |
| 2026-05-06 16:19 | 39.87234 | -104.00344 | 17244 ft | 410 kts | 90° |
| 2026-05-06 16:20 | 39.87207 | -103.96605 | 17842 ft | 418 kts | 90° |
| 2026-05-06 16:20 | 39.87178 | -103.92811 | 18485 ft | 423 kts | 89° |
| 2026-05-06 16:20 | 39.87297 | -103.88979 | 19067 ft | 428 kts | 83° |
| 2026-05-06 16:20 | 39.87578 | -103.85108 | 19700 ft | 433 kts | 84° |
| 2026-05-06 16:21 | 39.87851 | -103.81175 | 20286 ft | 439 kts | 84° |
| 2026-05-06 16:21 | 39.88129 | -103.77183 | 20882 ft | 444 kts | 84° |
| 2026-05-06 16:21 | 39.88415 | -103.73167 | 21416 ft | 450 kts | 83° |
| 2026-05-06 16:21 | 39.88873 | -103.69126 | 21978 ft | 455 kts | 81° |
| 2026-05-06 16:22 | 39.89351 | -103.65045 | 22582 ft | 459 kts | 81° |
| 2026-05-06 16:22 | 39.89830 | -103.60908 | 23085 ft | 465 kts | 81° |
| 2026-05-06 16:22 | 39.90311 | -103.56724 | 23629 ft | 470 kts | 82° |
| 2026-05-06 16:22 | 39.90793 | -103.52508 | 24162 ft | 475 kts | 82° |
| 2026-05-06 16:23 | 39.91277 | -103.48255 | 24745 ft | 477 kts | 82° |
| 2026-05-06 16:23 | 39.91761 | -103.43976 | 25202 ft | 482 kts | 82° |
| 2026-05-06 16:23 | 39.92252 | -103.39635 | 25715 ft | 486 kts | 82° |
| 2026-05-06 16:23 | 39.92743 | -103.35268 | 26182 ft | 490 kts | 81° |
| 2026-05-06 16:24 | 39.93246 | -103.30793 | 26713 ft | 492 kts | 82° |
| 2026-05-06 16:24 | 39.93741 | -103.26367 | 27111 ft | 497 kts | 82° |
| 2026-05-06 16:24 | 39.94240 | -103.21886 | 27596 ft | 500 kts | 82° |
| 2026-05-06 16:24 | 39.94740 | -103.17375 | 27986 ft | 504 kts | 82° |
| 2026-05-06 16:25 | 39.95243 | -103.12831 | 28345 ft | 509 kts | 82° |
| 2026-05-06 16:25 | 39.95749 | -103.08230 | 28818 ft | 511 kts | 83° |
| 2026-05-06 16:25 | 39.96255 | -103.03624 | 29170 ft | 516 kts | 83° |
| 2026-05-06 16:25 | 39.96763 | -102.98980 | 29614 ft | 519 kts | 83° |
| 2026-05-06 16:26 | 39.97272 | -102.94304 | 29962 ft | 523 kts | 83° |
| 2026-05-06 16:26 | 39.97782 | -102.89605 | 30379 ft | 525 kts | 83° |
| 2026-05-06 16:26 | 39.98296 | -102.84850 | 30692 ft | 530 kts | 83° |
| 2026-05-06 16:26 | 39.98804 | -102.80123 | 31171 ft | 527 kts | 83° |
| 2026-05-06 16:27 | 39.99308 | -102.75416 | 31523 ft | 527 kts | 83° |
| 2026-05-06 16:27 | 39.99815 | -102.70675 | 31855 ft | 527 kts | 82° |
| 2026-05-06 16:27 | 40.00320 | -102.65924 | 32110 ft | 529 kts | 82° |
| 2026-05-06 16:27 | 40.00821 | -102.61194 | 32511 ft | 527 kts | 82° |
| 2026-05-06 16:28 | 40.01323 | -102.56445 | 32749 ft | 529 kts | 82° |
| 2026-05-06 16:28 | 40.01822 | -102.51692 | 33100 ft | 529 kts | 82° |
| 2026-05-06 16:28 | 40.02319 | -102.46944 | 33388 ft | 530 kts | 82° |
| 2026-05-06 16:28 | 40.02817 | -102.42166 | 33694 ft | 530 kts | 82° |
| 2026-05-06 16:29 | 40.03310 | -102.37415 | 34048 ft | 529 kts | 82° |
| 2026-05-06 16:29 | 40.03807 | -102.32611 | 34485 ft | 526 kts | 83° |
| 2026-05-06 16:29 | 40.04298 | -102.27836 | 34789 ft | 526 kts | 83° |
| 2026-05-06 16:29 | 40.04783 | -102.23111 | 35098 ft | 524 kts | 83° |
| 2026-05-06 16:30 | 40.05582 | -102.15281 | 35122 ft | 521 kts | 83° |
| 2026-05-06 16:30 | 40.06692 | -102.04312 | 35128 ft | 525 kts | 83° |
| 2026-05-06 16:31 | 40.07638 | -101.94872 | 35111 ft | 524 kts | 83° |
| 2026-05-06 16:31 | 40.08574 | -101.85459 | 35114 ft | 525 kts | 83° |
| 2026-05-06 16:32 | 40.09507 | -101.75989 | 35119 ft | 527 kts | 83° |
| 2026-05-06 16:32 | 40.10440 | -101.66440 | 35121 ft | 526 kts | 83° |
| 2026-05-06 16:33 | 40.11363 | -101.56912 | 35125 ft | 527 kts | 83° |
| 2026-05-06 16:34 | 40.12733 | -101.42622 | 35123 ft | 530 kts | 83° |
| 2026-05-06 16:34 | 40.13368 | -101.32963 | 35121 ft | 528 kts | 89° |
| 2026-05-06 16:35 | 40.13721 | -101.23322 | 35116 ft | 529 kts | 89° |
| 2026-05-06 16:35 | 40.14053 | -101.13692 | 35119 ft | 530 kts | 89° |
| 2026-05-06 16:36 | 40.14372 | -101.04078 | 35122 ft | 530 kts | 89° |
| 2026-05-06 16:36 | 40.14681 | -100.94464 | 35126 ft | 529 kts | 89° |
| 2026-05-06 16:37 | 40.14982 | -100.84854 | 35133 ft | 531 kts | 89° |
| 2026-05-06 16:37 | 40.15276 | -100.75172 | 35141 ft | 531 kts | 89° |
| 2026-05-06 16:38 | 40.15562 | -100.65511 | 35147 ft | 533 kts | 89° |
| 2026-05-06 16:38 | 40.15840 | -100.55852 | 35150 ft | 533 kts | 89° |
| 2026-05-06 16:39 | 40.16110 | -100.46197 | 35151 ft | 534 kts | 89° |
| 2026-05-06 16:39 | 40.16372 | -100.36497 | 35149 ft | 535 kts | 89° |
| 2026-05-06 16:40 | 40.16631 | -100.26697 | 35139 ft | 534 kts | 90° |
| 2026-05-06 16:40 | 40.16878 | -100.16970 | 35142 ft | 537 kts | 90° |
| 2026-05-06 16:41 | 40.17118 | -100.07209 | 35141 ft | 536 kts | 90° |
| 2026-05-06 16:41 | 40.17350 | -99.97432 | 35138 ft | 538 kts | 90° |
| 2026-05-06 16:42 | 40.17574 | -99.87646 | 35134 ft | 539 kts | 90° |
| 2026-05-06 16:42 | 40.17790 | -99.77840 | 35134 ft | 539 kts | 90° |
| 2026-05-06 16:43 | 40.17998 | -99.68038 | 35137 ft | 539 kts | 90° |
| 2026-05-06 16:43 | 40.18198 | -99.58241 | 35134 ft | 539 kts | 90° |
| 2026-05-06 16:44 | 40.18389 | -99.48404 | 35138 ft | 540 kts | 90° |
| 2026-05-06 16:44 | 40.18572 | -99.38593 | 35139 ft | 540 kts | 90° |
| 2026-05-06 16:45 | 40.18752 | -99.28578 | 35124 ft | 541 kts | 91° |
| 2026-05-06 16:45 | 40.18918 | -99.18727 | 35130 ft | 542 kts | 91° |
| 2026-05-06 16:46 | 40.19077 | -99.08888 | 35127 ft | 542 kts | 91° |
| 2026-05-06 16:46 | 40.19228 | -98.98998 | 35134 ft | 544 kts | 91° |
| 2026-05-06 16:47 | 40.19370 | -98.89124 | 35134 ft | 543 kts | 91° |
| 2026-05-06 16:47 | 40.19504 | -98.79233 | 35135 ft | 545 kts | 91° |
| 2026-05-06 16:48 | 40.19630 | -98.69306 | 35139 ft | 546 kts | 91° |
| 2026-05-06 16:48 | 40.19749 | -98.59364 | 35139 ft | 547 kts | 91° |
| 2026-05-06 16:49 | 40.19858 | -98.49439 | 35142 ft | 546 kts | 91° |
| 2026-05-06 16:49 | 40.19959 | -98.39498 | 35145 ft | 548 kts | 91° |
| 2026-05-06 16:50 | 40.20053 | -98.29421 | 35130 ft | 548 kts | 92° |
| 2026-05-06 16:50 | 40.20136 | -98.19444 | 35135 ft | 550 kts | 92° |
| 2026-05-06 16:51 | 40.20211 | -98.09423 | 35139 ft | 551 kts | 92° |
| 2026-05-06 16:51 | 40.20279 | -97.99396 | 35144 ft | 552 kts | 92° |
| 2026-05-06 16:52 | 40.20338 | -97.89354 | 35138 ft | 550 kts | 92° |
| 2026-05-06 16:52 | 40.20387 | -97.79335 | 35147 ft | 552 kts | 92° |
| 2026-05-06 16:53 | 40.20428 | -97.69280 | 35155 ft | 556 kts | 92° |
| 2026-05-06 16:53 | 40.20462 | -97.59205 | 35168 ft | 554 kts | 92° |
| 2026-05-06 16:54 | 40.20486 | -97.49137 | 35168 ft | 555 kts | 92° |
| 2026-05-06 16:54 | 40.20500 | -97.39036 | 35156 ft | 557 kts | 92° |
| 2026-05-06 16:55 | 40.20508 | -97.28762 | 35129 ft | 556 kts | 93° |
| 2026-05-06 16:55 | 40.20505 | -97.18617 | 35132 ft | 557 kts | 94° |
| 2026-05-06 16:56 | 40.20492 | -97.08488 | 35145 ft | 559 kts | 93° |
| 2026-05-06 16:56 | 40.20474 | -96.98293 | 35145 ft | 561 kts | 94° |
| 2026-05-06 16:57 | 40.20442 | -96.88112 | 35146 ft | 562 kts | 93° |
| 2026-05-06 16:57 | 40.20405 | -96.77898 | 35158 ft | 562 kts | 94° |
| 2026-05-06 16:58 | 40.20358 | -96.67657 | 35160 ft | 563 kts | 94° |
| 2026-05-06 16:58 | 40.20302 | -96.57444 | 35150 ft | 562 kts | 94° |
| 2026-05-06 16:59 | 40.20235 | -96.47156 | 35134 ft | 565 kts | 94° |
| 2026-05-06 16:59 | 40.20160 | -96.36888 | 35133 ft | 565 kts | 94° |
| 2026-05-06 17:00 | 40.20077 | -96.26510 | 35118 ft | 566 kts | 94° |
| 2026-05-06 17:00 | 40.19914 | -96.16219 | 35114 ft | 564 kts | 96° |
| 2026-05-06 17:01 | 40.19622 | -96.05939 | 35119 ft | 566 kts | 97° |
| 2026-05-06 17:01 | 40.19324 | -95.95601 | 35120 ft | 569 kts | 97° |
| 2026-05-06 17:02 | 40.19015 | -95.85276 | 35122 ft | 570 kts | 96° |
| 2026-05-06 17:02 | 40.18704 | -95.74951 | 35121 ft | 570 kts | 96° |
| 2026-05-06 17:03 | 40.18377 | -95.64567 | 35134 ft | 570 kts | 96° |
| 2026-05-06 17:03 | 40.18042 | -95.54198 | 35139 ft | 572 kts | 96° |
| 2026-05-06 17:04 | 40.17700 | -95.43803 | 35128 ft | 571 kts | 97° |
| 2026-05-06 17:04 | 40.17342 | -95.33355 | 35128 ft | 577 kts | 97° |
| 2026-05-06 17:04 | 40.17157 | -95.27955 | 34920 ft | 575 kts | 98° |
| 2026-05-06 17:05 | 40.16978 | -95.22765 | 35095 ft | 570 kts | 98° |
| 2026-05-06 17:05 | 40.16604 | -95.12379 | 35113 ft | 574 kts | 98° |
| 2026-05-06 17:06 | 40.16215 | -95.01913 | 35112 ft | 581 kts | 97° |
| 2026-05-06 17:06 | 40.15823 | -94.91399 | 35104 ft | 575 kts | 97° |
| 2026-05-06 17:07 | 40.15420 | -94.80922 | 35112 ft | 580 kts | 98° |
| 2026-05-06 17:07 | 40.15004 | -94.70421 | 35105 ft | 579 kts | 97° |
| 2026-05-06 17:08 | 40.14578 | -94.59887 | 35109 ft | 581 kts | 97° |
| 2026-05-06 17:08 | 40.14142 | -94.49317 | 35117 ft | 584 kts | 98° |
| 2026-05-06 17:09 | 40.13694 | -94.38710 | 35121 ft | 584 kts | 97° |
| 2026-05-06 17:09 | 40.13235 | -94.27961 | 35094 ft | 581 kts | 99° |
| 2026-05-06 17:10 | 40.12765 | -94.17392 | 35098 ft | 585 kts | 98° |
| 2026-05-06 17:10 | 40.12286 | -94.06719 | 35087 ft | 589 kts | 98° |
| 2026-05-06 17:11 | 40.11796 | -93.96043 | 35115 ft | 588 kts | 98° |
| 2026-05-06 17:11 | 40.11298 | -93.85412 | 35109 ft | 586 kts | 98° |
| 2026-05-06 17:12 | 40.10789 | -93.74755 | 35122 ft | 590 kts | 99° |
| 2026-05-06 17:12 | 40.10274 | -93.64107 | 35108 ft | 587 kts | 99° |
| 2026-05-06 17:13 | 40.09740 | -93.53430 | 35123 ft | 592 kts | 99° |
| 2026-05-06 17:13 | 40.09203 | -93.42750 | 35122 ft | 589 kts | 99° |
| 2026-05-06 17:14 | 40.08657 | -93.32099 | 35113 ft | 591 kts | 99° |
| 2026-05-06 17:14 | 40.08081 | -93.21162 | 35112 ft | 591 kts | 99° |
| 2026-05-06 17:15 | 40.07517 | -93.10499 | 35076 ft | 589 kts | 99° |
| 2026-05-06 17:15 | 40.06935 | -92.99807 | 35102 ft | 593 kts | 99° |
| 2026-05-06 17:16 | 40.06343 | -92.89077 | 35105 ft | 594 kts | 99° |
| 2026-05-06 17:16 | 40.05743 | -92.78342 | 35107 ft | 594 kts | 99° |
| 2026-05-06 17:17 | 40.05127 | -92.67601 | 35108 ft | 597 kts | 99° |
| 2026-05-06 17:17 | 40.04502 | -92.56782 | 35115 ft | 598 kts | 99° |
| 2026-05-06 17:18 | 40.03868 | -92.46038 | 35106 ft | 595 kts | 100° |
| 2026-05-06 17:18 | 40.03225 | -92.35265 | 35103 ft | 598 kts | 100° |
| 2026-05-06 17:19 | 40.02557 | -92.24301 | 35061 ft | 597 kts | 101° |
| 2026-05-06 17:19 | 40.01890 | -92.13462 | 35065 ft | 600 kts | 101° |
| 2026-05-06 17:20 | 40.01210 | -92.02644 | 35063 ft | 601 kts | 100° |
| 2026-05-06 17:20 | 40.00523 | -91.91816 | 35070 ft | 600 kts | 101° |
| 2026-05-06 17:21 | 39.99821 | -91.80957 | 35070 ft | 599 kts | 101° |
| 2026-05-06 17:21 | 39.99109 | -91.70097 | 35071 ft | 602 kts | 100° |
| 2026-05-06 17:22 | 39.98386 | -91.59195 | 35072 ft | 604 kts | 101° |
| 2026-05-06 17:22 | 39.98018 | -91.53739 | 35313 ft | 602 kts | 101° |
| 2026-05-06 17:22 | 39.97647 | -91.48291 | 35075 ft | 607 kts | 100° |
| 2026-05-06 17:23 | 39.96907 | -91.37408 | 35086 ft | 601 kts | 100° |
| 2026-05-06 17:23 | 39.96141 | -91.26364 | 35066 ft | 603 kts | 101° |
| 2026-05-06 17:24 | 39.95375 | -91.15462 | 35056 ft | 602 kts | 101° |
| 2026-05-06 17:24 | 39.94599 | -91.04578 | 35053 ft | 604 kts | 101° |
| 2026-05-06 17:25 | 39.93814 | -90.93683 | 35048 ft | 603 kts | 101° |
| 2026-05-06 17:25 | 39.93017 | -90.82797 | 35047 ft | 604 kts | 101° |
| 2026-05-06 17:26 | 39.92206 | -90.71884 | 35051 ft | 606 kts | 101° |
| 2026-05-06 17:26 | 39.91392 | -90.61017 | 35054 ft | 606 kts | 101° |
| 2026-05-06 17:27 | 39.90563 | -90.50091 | 35060 ft | 604 kts | 101° |
| 2026-05-06 17:27 | 39.89725 | -90.39204 | 35071 ft | 606 kts | 100° |
| 2026-05-06 17:28 | 39.88855 | -90.27999 | 35049 ft | 603 kts | 102° |
| 2026-05-06 17:28 | 39.87991 | -90.17123 | 35057 ft | 607 kts | 102° |
| 2026-05-06 17:29 | 39.87124 | -90.06214 | 35056 ft | 605 kts | 102° |
| 2026-05-06 17:29 | 39.86242 | -89.95330 | 35054 ft | 606 kts | 102° |
| 2026-05-06 17:30 | 39.85351 | -89.84422 | 35052 ft | 607 kts | 102° |
| 2026-05-06 17:30 | 39.84449 | -89.73491 | 35057 ft | 604 kts | 101° |
| 2026-05-06 17:31 | 39.83848 | -89.62559 | 35072 ft | 611 kts | 92° |
| 2026-05-06 17:31 | 39.84032 | -89.51536 | 35057 ft | 609 kts | 92° |
| 2026-05-06 17:32 | 39.84117 | -89.40522 | 35056 ft | 609 kts | 92° |
| 2026-05-06 17:32 | 39.84165 | -89.29463 | 35016 ft | 609 kts | 93° |
| 2026-05-06 17:33 | 39.84201 | -89.18443 | 35022 ft | 609 kts | 94° |
| 2026-05-06 17:33 | 39.84225 | -89.07417 | 35022 ft | 609 kts | 93° |
| 2026-05-06 17:34 | 39.84236 | -88.96382 | 35027 ft | 611 kts | 93° |
| 2026-05-06 17:34 | 39.84240 | -88.85326 | 35026 ft | 610 kts | 93° |
| 2026-05-06 17:35 | 39.84229 | -88.74314 | 35038 ft | 609 kts | 92° |
| 2026-05-06 17:35 | 39.84209 | -88.63292 | 35032 ft | 610 kts | 94° |
| 2026-05-06 17:36 | 39.84160 | -88.46718 | 35030 ft | 609 kts | 93° |
| 2026-05-06 17:36 | 39.84108 | -88.35732 | 35032 ft | 608 kts | 93° |
| 2026-05-06 17:37 | 39.84050 | -88.24628 | 35003 ft | 607 kts | 94° |
| 2026-05-06 17:37 | 39.83979 | -88.13646 | 35011 ft | 608 kts | 94° |
| 2026-05-06 17:38 | 39.83905 | -88.02637 | 35005 ft | 608 kts | 94° |
| 2026-05-06 17:38 | 39.83815 | -87.91634 | 34999 ft | 609 kts | 94° |
| 2026-05-06 17:39 | 39.83716 | -87.80638 | 35010 ft | 608 kts | 94° |
| 2026-05-06 17:39 | 39.83608 | -87.69646 | 35018 ft | 608 kts | 94° |
| 2026-05-06 17:40 | 39.83489 | -87.58674 | 35019 ft | 608 kts | 94° |
| 2026-05-06 17:40 | 39.83361 | -87.47683 | 35020 ft | 608 kts | 93° |
| 2026-05-06 17:41 | 39.83220 | -87.36694 | 35011 ft | 608 kts | 94° |
| 2026-05-06 17:41 | 39.83068 | -87.25556 | 34990 ft | 606 kts | 95° |
| 2026-05-06 17:42 | 39.82906 | -87.14567 | 34989 ft | 609 kts | 94° |
| 2026-05-06 17:42 | 39.82736 | -87.03567 | 35000 ft | 605 kts | 94° |
| 2026-05-06 17:43 | 39.82556 | -86.92592 | 35007 ft | 607 kts | 95° |
| 2026-05-06 17:43 | 39.82362 | -86.81618 | 35006 ft | 607 kts | 94° |
| 2026-05-06 17:44 | 39.82160 | -86.70631 | 35011 ft | 607 kts | 94° |
| 2026-05-06 17:44 | 39.81951 | -86.59679 | 35011 ft | 604 kts | 94° |
| 2026-05-06 17:45 | 39.81728 | -86.48769 | 35017 ft | 605 kts | 94° |
| 2026-05-06 17:45 | 39.81564 | -86.37801 | 35023 ft | 605 kts | 89° |
| 2026-05-06 17:46 | 39.82523 | -86.26887 | 35000 ft | 608 kts | 83° |
| 2026-05-06 17:46 | 39.83653 | -86.15999 | 34997 ft | 606 kts | 82° |
| 2026-05-06 17:47 | 39.84768 | -86.05218 | 35005 ft | 607 kts | 82° |
| 2026-05-06 17:47 | 39.85737 | -85.95752 | 35005 ft | 606 kts | 83° |
| 2026-05-06 17:48 | 39.86842 | -85.84877 | 35003 ft | 606 kts | 82° |
| 2026-05-06 17:48 | 39.87938 | -85.73995 | 35005 ft | 607 kts | 83° |
| 2026-05-06 17:49 | 39.89023 | -85.63085 | 35006 ft | 607 kts | 82° |
| 2026-05-06 17:49 | 39.90100 | -85.52190 | 35004 ft | 606 kts | 82° |
| 2026-05-06 17:50 | 39.91164 | -85.41287 | 35010 ft | 606 kts | 83° |
| 2026-05-06 17:50 | 39.91975 | -85.32913 | 34995 ft | 607 kts | 83° |
| 2026-05-06 17:51 | 39.93028 | -85.21943 | 34979 ft | 604 kts | 83° |
| 2026-05-06 17:51 | 39.94063 | -85.11051 | 34975 ft | 606 kts | 83° |
| 2026-05-06 17:52 | 39.95085 | -85.00189 | 34970 ft | 604 kts | 83° |
| 2026-05-06 17:52 | 39.96099 | -84.89308 | 34973 ft | 605 kts | 83° |
| 2026-05-06 17:53 | 39.97100 | -84.78440 | 34969 ft | 603 kts | 83° |
| 2026-05-06 17:53 | 39.98090 | -84.67607 | 34972 ft | 603 kts | 83° |
| 2026-05-06 17:54 | 39.99068 | -84.56734 | 34980 ft | 603 kts | 83° |
| 2026-05-06 17:54 | 40.00041 | -84.45858 | 34988 ft | 603 kts | 83° |
| 2026-05-06 17:55 | 40.00998 | -84.35022 | 34985 ft | 602 kts | 83° |
| 2026-05-06 17:55 | 40.01959 | -84.24020 | 34965 ft | 601 kts | 84° |
| 2026-05-06 17:56 | 40.02894 | -84.13190 | 34963 ft | 601 kts | 84° |
| 2026-05-06 17:56 | 40.03822 | -84.02355 | 34961 ft | 601 kts | 84° |
| 2026-05-06 17:57 | 40.04735 | -83.91514 | 34972 ft | 600 kts | 83° |
| 2026-05-06 17:57 | 40.05642 | -83.80669 | 34960 ft | 601 kts | 84° |
| 2026-05-06 17:58 | 40.06538 | -83.69817 | 34957 ft | 601 kts | 83° |
| 2026-05-06 17:58 | 40.07422 | -83.58991 | 34969 ft | 601 kts | 83° |
| 2026-05-06 17:59 | 40.08299 | -83.48133 | 34981 ft | 600 kts | 84° |
| 2026-05-06 17:59 | 40.09163 | -83.37285 | 34983 ft | 601 kts | 84° |
| 2026-05-06 18:00 | 40.10026 | -83.26346 | 34953 ft | 599 kts | 85° |
| 2026-05-06 18:00 | 40.10874 | -83.15417 | 34948 ft | 600 kts | 84° |
| 2026-05-06 18:01 | 40.11707 | -83.04581 | 34956 ft | 599 kts | 84° |
| 2026-05-06 18:01 | 40.12531 | -82.93732 | 34954 ft | 598 kts | 84° |
| 2026-05-06 18:02 | 40.13328 | -82.83076 | 34955 ft | 598 kts | 84° |
| 2026-05-06 18:02 | 40.14132 | -82.72252 | 34961 ft | 598 kts | 84° |
| 2026-05-06 18:03 | 40.14536 | -82.61442 | 34975 ft | 596 kts | 96° |
| 2026-05-06 18:03 | 40.13182 | -82.50764 | 34961 ft | 591 kts | 108° |
| 2026-05-06 18:04 | 40.11248 | -82.40444 | 34953 ft | 573 kts | 109° |
| 2026-05-06 18:04 | 40.10269 | -82.35480 | 34960 ft | 557 kts | 111° |
| 2026-05-06 18:04 | 40.09272 | -82.30554 | 34914 ft | 540 kts | 111° |
| 2026-05-06 18:05 | 40.08312 | -82.25863 | 34913 ft | 521 kts | 112° |
| 2026-05-06 18:05 | 40.07367 | -82.21308 | 34940 ft | 521 kts | 112° |
| 2026-05-06 18:05 | 40.05433 | -82.12059 | 34939 ft | 535 kts | 112° |
| 2026-05-06 18:06 | 40.03456 | -82.02607 | 34944 ft | 539 kts | 111° |
| 2026-05-06 18:06 | 40.01477 | -81.93190 | 34936 ft | 535 kts | 111° |
| 2026-05-06 18:07 | 39.99497 | -81.83820 | 34927 ft | 536 kts | 111° |
| 2026-05-06 18:07 | 39.97499 | -81.74405 | 34933 ft | 537 kts | 111° |
| 2026-05-06 18:08 | 39.95503 | -81.65038 | 34933 ft | 535 kts | 112° |
| 2026-05-06 18:08 | 39.93500 | -81.55696 | 34942 ft | 536 kts | 112° |
| 2026-05-06 18:09 | 39.91487 | -81.46326 | 34936 ft | 537 kts | 111° |
| 2026-05-06 18:09 | 39.89470 | -81.36981 | 34942 ft | 534 kts | 112° |
| 2026-05-06 18:10 | 39.87431 | -81.27587 | 34920 ft | 534 kts | 112° |
| 2026-05-06 18:10 | 39.85404 | -81.18278 | 34911 ft | 536 kts | 111° |
| 2026-05-06 18:11 | 39.83369 | -81.08974 | 34901 ft | 535 kts | 111° |
| 2026-05-06 18:11 | 39.81330 | -80.99692 | 34907 ft | 533 kts | 112° |
| 2026-05-06 18:12 | 39.79277 | -80.90376 | 34911 ft | 535 kts | 112° |
| 2026-05-06 18:12 | 39.77186 | -80.80957 | 34915 ft | 551 kts | 111° |
| 2026-05-06 18:13 | 39.75030 | -80.71273 | 34924 ft | 566 kts | 112° |
| 2026-05-06 18:13 | 39.72805 | -80.61327 | 34914 ft | 580 kts | 111° |
| 2026-05-06 18:14 | 39.70536 | -80.51201 | 34920 ft | 584 kts | 111° |
| 2026-05-06 18:14 | 39.68261 | -80.41098 | 34916 ft | 579 kts | 111° |
| 2026-05-06 18:15 | 39.65993 | -80.31088 | 34893 ft | 579 kts | 111° |
| 2026-05-06 18:15 | 39.63702 | -80.21028 | 34894 ft | 580 kts | 111° |
| 2026-05-06 18:16 | 39.61410 | -80.10987 | 34912 ft | 580 kts | 112° |
| 2026-05-06 18:16 | 39.60275 | -80.06028 | 34898 ft | 567 kts | 111° |
| 2026-05-06 18:16 | 39.59162 | -80.01184 | 34679 ft | 555 kts | 112° |
| 2026-05-06 18:17 | 39.58065 | -79.96408 | 33234 ft | 556 kts | 112° |
| 2026-05-06 18:17 | 39.56971 | -79.91668 | 32353 ft | 540 kts | 112° |
| 2026-05-06 18:17 | 39.55898 | -79.87025 | 31675 ft | 541 kts | 112° |
| 2026-05-06 18:17 | 39.54934 | -79.82203 | 30964 ft | 561 kts | 107° |
| 2026-05-06 18:18 | 39.54076 | -79.77274 | 30253 ft | 562 kts | 107° |
| 2026-05-06 18:18 | 39.53202 | -79.72369 | 29554 ft | 557 kts | 108° |
| 2026-05-06 18:18 | 39.52334 | -79.67513 | 28893 ft | 549 kts | 108° |
| 2026-05-06 18:18 | 39.51473 | -79.62740 | 28205 ft | 541 kts | 108° |
| 2026-05-06 18:19 | 39.50622 | -79.58028 | 27548 ft | 535 kts | 108° |
| 2026-05-06 18:19 | 39.49778 | -79.53376 | 26914 ft | 529 kts | 108° |
| 2026-05-06 18:19 | 39.48949 | -79.48763 | 26457 ft | 523 kts | 107° |
| 2026-05-06 18:19 | 39.48126 | -79.44191 | 26040 ft | 521 kts | 107° |
| 2026-05-06 18:20 | 39.47297 | -79.39623 | 25640 ft | 522 kts | 107° |
| 2026-05-06 18:20 | 39.46458 | -79.35048 | 25018 ft | 524 kts | 108° |
| 2026-05-06 18:20 | 39.45613 | -79.30450 | 24278 ft | 518 kts | 108° |
| 2026-05-06 18:20 | 39.44769 | -79.25881 | 23587 ft | 517 kts | 108° |
| 2026-05-06 18:21 | 39.44042 | -79.21954 | 23115 ft | 508 kts | 108° |
| 2026-05-06 18:21 | 39.43265 | -79.17690 | 23036 ft | 468 kts | 108° |
| 2026-05-06 18:21 | 39.42546 | -79.13590 | 22521 ft | 475 kts | 107° |
| 2026-05-06 18:21 | 39.41808 | -79.09403 | 21923 ft | 478 kts | 106° |
| 2026-05-06 18:22 | 39.41081 | -79.05247 | 21336 ft | 468 kts | 106° |
| 2026-05-06 18:22 | 39.40369 | -79.01185 | 20717 ft | 459 kts | 107° |
| 2026-05-06 18:22 | 39.39661 | -78.97179 | 20127 ft | 453 kts | 106° |
| 2026-05-06 18:22 | 39.38964 | -78.93239 | 19601 ft | 446 kts | 105° |
| 2026-05-06 18:23 | 39.38269 | -78.89344 | 19061 ft | 443 kts | 105° |
| 2026-05-06 18:23 | 39.37576 | -78.85476 | 18532 ft | 437 kts | 105° |
| 2026-05-06 18:23 | 39.36894 | -78.81671 | 18004 ft | 431 kts | 105° |
| 2026-05-06 18:23 | 39.36215 | -78.77902 | 17477 ft | 427 kts | 105° |
| 2026-05-06 18:24 | 39.35548 | -78.74195 | 16994 ft | 421 kts | 106° |
| 2026-05-06 18:24 | 39.34881 | -78.70510 | 16514 ft | 422 kts | 105° |
| 2026-05-06 18:24 | 39.34217 | -78.66831 | 16030 ft | 417 kts | 106° |
| 2026-05-06 18:24 | 39.33560 | -78.63217 | 15548 ft | 411 kts | 106° |
| 2026-05-06 18:25 | 39.32912 | -78.59643 | 15013 ft | 408 kts | 106° |
| 2026-05-06 18:25 | 39.32267 | -78.56094 | 14557 ft | 403 kts | 105° |
| 2026-05-06 18:25 | 39.31639 | -78.52594 | 14064 ft | 400 kts | 105° |
| 2026-05-06 18:25 | 39.31011 | -78.49105 | 13569 ft | 397 kts | 105° |
| 2026-05-06 18:26 | 39.30390 | -78.45655 | 13086 ft | 392 kts | 105° |
| 2026-05-06 18:26 | 39.29773 | -78.42243 | 12600 ft | 387 kts | 105° |
| 2026-05-06 18:26 | 39.29157 | -78.38837 | 12123 ft | 388 kts | 105° |
| 2026-05-06 18:26 | 39.28430 | -78.35595 | 11889 ft | 358 kts | 122° |
| 2026-05-06 18:27 | 39.27067 | -78.33179 | 11842 ft | 312 kts | 147° |
| 2026-05-06 18:27 | 39.25335 | -78.31695 | 11580 ft | 281 kts | 168° |
| 2026-05-06 18:27 | 39.23515 | -78.31082 | 11384 ft | 261 kts | 185° |
| 2026-05-06 18:27 | 39.21743 | -78.31169 | 11013 ft | 248 kts | 201° |
| 2026-05-06 18:28 | 39.20194 | -78.31852 | 10975 ft | 225 kts | 216° |
| 2026-05-06 18:28 | 39.18914 | -78.32970 | 10982 ft | 224 kts | 230° |
| 2026-05-06 18:28 | 39.17876 | -78.34507 | 10975 ft | 228 kts | 242° |
| 2026-05-06 18:28 | 39.17186 | -78.36319 | 10970 ft | 223 kts | 254° |
| 2026-05-06 18:29 | 39.16883 | -78.38259 | 10963 ft | 221 kts | 267° |
| 2026-05-06 18:29 | 39.16969 | -78.40226 | 10977 ft | 221 kts | 278° |
| 2026-05-06 18:29 | 39.17277 | -78.42182 | 10965 ft | 223 kts | 278° |
| 2026-05-06 18:29 | 39.17583 | -78.44145 | 10969 ft | 224 kts | 279° |
| 2026-05-06 18:30 | 39.17908 | -78.46099 | 10978 ft | 222 kts | 279° |
| 2026-05-06 18:30 | 39.18240 | -78.48036 | 10974 ft | 221 kts | 279° |
| 2026-05-06 18:30 | 39.18578 | -78.49978 | 10985 ft | 224 kts | 279° |
| 2026-05-06 18:30 | 39.18923 | -78.51934 | 10986 ft | 224 kts | 279° |
| 2026-05-06 18:31 | 39.19417 | -78.53840 | 10979 ft | 226 kts | 291° |
| 2026-05-06 18:31 | 39.20280 | -78.55561 | 10992 ft | 232 kts | 304° |
| 2026-05-06 18:31 | 39.21498 | -78.56984 | 10999 ft | 242 kts | 318° |
| 2026-05-06 18:31 | 39.23032 | -78.57980 | 11001 ft | 253 kts | 333° |
| 2026-05-06 18:32 | 39.24805 | -78.58413 | 11013 ft | 266 kts | 349° |
| 2026-05-06 18:32 | 39.26691 | -78.58152 | 11003 ft | 280 kts | 8° |
| 2026-05-06 18:32 | 39.28519 | -78.57107 | 11001 ft | 295 kts | 28° |
| 2026-05-06 18:32 | 39.30047 | -78.55288 | 11004 ft | 305 kts | 50° |
| 2026-05-06 18:33 | 39.31035 | -78.52851 | 11003 ft | 311 kts | 74° |
| 2026-05-06 18:33 | 39.31310 | -78.50086 | 11003 ft | 312 kts | 98° |
| 2026-05-06 18:33 | 39.30848 | -78.47397 | 11004 ft | 306 kts | 112° |
| 2026-05-06 18:33 | 39.30271 | -78.44751 | 10965 ft | 305 kts | 108° |
| 2026-05-06 18:34 | 39.29759 | -78.42090 | 10973 ft | 306 kts | 108° |
| 2026-05-06 18:34 | 39.29263 | -78.39416 | 10982 ft | 308 kts | 107° |
| 2026-05-06 18:34 | 39.28756 | -78.36736 | 10965 ft | 306 kts | 114° |
| 2026-05-06 18:34 | 39.27674 | -78.34500 | 11032 ft | 286 kts | 150° |
| 2026-05-06 18:35 | 39.25978 | -78.33393 | 11017 ft | 266 kts | 181° |
| 2026-05-06 18:35 | 39.24218 | -78.33502 | 11007 ft | 245 kts | 208° |
| 2026-05-06 18:35 | 39.22802 | -78.34564 | 10996 ft | 231 kts | 232° |
| 2026-05-06 18:35 | 39.21929 | -78.36231 | 10992 ft | 222 kts | 253° |
| 2026-05-06 18:36 | 39.21685 | -78.38181 | 10993 ft | 222 kts | 272° |
| 2026-05-06 18:36 | 39.21943 | -78.40145 | 10990 ft | 223 kts | 278° |
| 2026-05-06 18:36 | 39.22258 | -78.42113 | 10977 ft | 224 kts | 279° |
| 2026-05-06 18:36 | 39.22581 | -78.44067 | 10969 ft | 222 kts | 279° |
| 2026-05-06 18:37 | 39.22914 | -78.46010 | 10976 ft | 222 kts | 279° |
| 2026-05-06 18:37 | 39.23139 | -78.47309 | 10971 ft | 223 kts | 280° |
| 2026-05-06 18:37 | 39.23597 | -78.49913 | 10979 ft | 223 kts | 279° |
| 2026-05-06 18:37 | 39.23989 | -78.51858 | 10977 ft | 226 kts | 288° |
| 2026-05-06 18:38 | 39.24865 | -78.53571 | 11007 ft | 236 kts | 309° |
| 2026-05-06 18:38 | 39.26299 | -78.54703 | 10996 ft | 253 kts | 334° |
| 2026-05-06 18:38 | 39.28122 | -78.54902 | 11021 ft | 277 kts | 2° |
| 2026-05-06 18:38 | 39.29933 | -78.53863 | 11025 ft | 298 kts | 36° |
| 2026-05-06 18:39 | 39.31136 | -78.51644 | 11040 ft | 311 kts | 72° |
| 2026-05-06 18:39 | 39.31296 | -78.48899 | 11076 ft | 309 kts | 107° |
| 2026-05-06 18:39 | 39.30680 | -78.46247 | 11054 ft | 310 kts | 112° |
| 2026-05-06 18:40 | 39.29568 | -78.40930 | 11029 ft | 306 kts | 108° |
| 2026-05-06 18:40 | 39.29066 | -78.38259 | 11024 ft | 308 kts | 107° |
| 2026-05-06 18:40 | 39.28408 | -78.35602 | 11062 ft | 320 kts | 125° |
| 2026-05-06 18:40 | 39.27102 | -78.33226 | 11119 ft | 329 kts | 134° |
| 2026-05-06 18:41 | 39.25716 | -78.30836 | 11108 ft | 332 kts | 131° |
| 2026-05-06 18:41 | 39.24388 | -78.28406 | 11099 ft | 330 kts | 130° |
| 2026-05-06 18:41 | 39.23081 | -78.25976 | 11094 ft | 328 kts | 130° |
| 2026-05-06 18:41 | 39.21782 | -78.23535 | 10921 ft | 333 kts | 130° |
| 2026-05-06 18:42 | 39.20474 | -78.21062 | 10602 ft | 330 kts | 130° |
| 2026-05-06 18:42 | 39.19198 | -78.18643 | 10324 ft | 323 kts | 129° |
| 2026-05-06 18:42 | 39.17953 | -78.16279 | 10188 ft | 312 kts | 129° |
| 2026-05-06 18:42 | 39.16738 | -78.13977 | 9894 ft | 312 kts | 130° |
| 2026-05-06 18:43 | 39.15524 | -78.11678 | 9728 ft | 305 kts | 129° |
| 2026-05-06 18:43 | 39.14331 | -78.09417 | 9681 ft | 307 kts | 129° |
| 2026-05-06 18:43 | 39.13116 | -78.07119 | 9598 ft | 311 kts | 129° |
| 2026-05-06 18:43 | 39.11894 | -78.04806 | 9488 ft | 312 kts | 129° |
| 2026-05-06 18:44 | 39.10671 | -78.02490 | 9385 ft | 311 kts | 129° |
| 2026-05-06 18:44 | 39.09453 | -78.00187 | 9244 ft | 309 kts | 129° |
| 2026-05-06 18:44 | 39.08230 | -77.97884 | 8864 ft | 312 kts | 129° |
| 2026-05-06 18:44 | 39.07012 | -77.95586 | 8477 ft | 308 kts | 129° |
| 2026-05-06 18:45 | 39.05799 | -77.93305 | 8103 ft | 308 kts | 129° |
| 2026-05-06 18:45 | 39.04590 | -77.91032 | 7689 ft | 309 kts | 129° |
| 2026-05-06 18:45 | 39.03373 | -77.88743 | 7205 ft | 312 kts | 129° |
| 2026-05-06 18:45 | 39.02152 | -77.86448 | 6974 ft | 304 kts | 128° |
| 2026-05-06 18:46 | 39.00985 | -77.84246 | 6776 ft | 294 kts | 128° |
| 2026-05-06 18:46 | 38.99843 | -77.82098 | 6554 ft | 286 kts | 129° |
| 2026-05-06 18:46 | 38.98716 | -77.79981 | 6350 ft | 288 kts | 129° |
| 2026-05-06 18:46 | 38.97578 | -77.77847 | 6147 ft | 290 kts | 129° |
| 2026-05-06 18:47 | 38.96679 | -77.75531 | 6006 ft | 292 kts | 105° |
| 2026-05-06 18:47 | 38.96333 | -77.72946 | 5990 ft | 296 kts | 100° |
| 2026-05-06 18:47 | 38.96024 | -77.70328 | 5979 ft | 296 kts | 100° |
| 2026-05-06 18:47 | 38.95726 | -77.67700 | 5986 ft | 296 kts | 99° |
| 2026-05-06 18:48 | 38.95578 | -77.65054 | 5988 ft | 297 kts | 82° |
| 2026-05-06 18:48 | 38.96229 | -77.62561 | 6017 ft | 296 kts | 53° |
| 2026-05-06 18:48 | 38.97633 | -77.60690 | 6014 ft | 287 kts | 30° |
| 2026-05-06 18:48 | 38.99298 | -77.59258 | 5985 ft | 288 kts | 28° |
| 2026-05-06 18:49 | 39.01022 | -77.57991 | 5982 ft | 277 kts | 12° |
| 2026-05-06 18:49 | 39.02883 | -77.57628 | 6013 ft | 269 kts | 354° |
| 2026-05-06 18:49 | 39.04775 | -77.57569 | 5983 ft | 270 kts | 354° |
| 2026-05-06 18:49 | 39.06655 | -77.57519 | 5953 ft | 266 kts | 353° |
| 2026-05-06 18:50 | 39.08515 | -77.57493 | 5602 ft | 268 kts | 354° |
| 2026-05-06 18:50 | 39.10391 | -77.57482 | 5236 ft | 268 kts | 353° |
| 2026-05-06 18:50 | 39.12255 | -77.57472 | 4925 ft | 267 kts | 353° |
| 2026-05-06 18:50 | 39.14120 | -77.57469 | 4598 ft | 266 kts | 354° |
| 2026-05-06 18:51 | 39.15962 | -77.57477 | 4267 ft | 266 kts | 354° |
| 2026-05-06 18:51 | 39.17821 | -77.57495 | 3980 ft | 262 kts | 353° |
| 2026-05-06 18:51 | 39.19616 | -77.57507 | 3979 ft | 256 kts | 353° |
| 2026-05-06 18:51 | 39.21446 | -77.57463 | 3987 ft | 270 kts | 4° |
| 2026-05-06 18:52 | 39.23217 | -77.56556 | 4006 ft | 279 kts | 34° |
| 2026-05-06 18:52 | 39.24503 | -77.54647 | 4008 ft | 286 kts | 64° |
| 2026-05-06 18:52 | 39.25001 | -77.52200 | 4001 ft | 277 kts | 87° |
| 2026-05-06 18:52 | 39.25028 | -77.49783 | 3961 ft | 262 kts | 102° |
| 2026-05-06 18:53 | 39.24396 | -77.47712 | 3893 ft | 241 kts | 134° |
| 2026-05-06 18:53 | 39.23183 | -77.46301 | 3613 ft | 230 kts | 159° |
| 2026-05-06 18:53 | 39.21696 | -77.45833 | 3335 ft | 216 kts | 184° |
| 2026-05-06 18:53 | 39.20209 | -77.45783 | 3164 ft | 212 kts | 184° |
| 2026-05-06 18:54 | 39.18738 | -77.45728 | 2968 ft | 207 kts | 185° |
| 2026-05-06 18:54 | 39.17317 | -77.45699 | 2987 ft | 204 kts | 185° |
| 2026-05-06 18:54 | 39.15847 | -77.45694 | 2996 ft | 214 kts | 185° |
| 2026-05-06 18:54 | 39.14355 | -77.45693 | 2971 ft | 211 kts | 186° |
| 2026-05-06 18:55 | 39.12888 | -77.45702 | 2969 ft | 211 kts | 185° |
| 2026-05-06 18:55 | 39.11405 | -77.45719 | 2980 ft | 213 kts | 185° |
| 2026-05-06 18:55 | 39.09905 | -77.45742 | 2771 ft | 218 kts | 185° |
| 2026-05-06 18:55 | 39.08387 | -77.45766 | 2497 ft | 217 kts | 184° |
| 2026-05-06 18:56 | 39.06865 | -77.45785 | 2211 ft | 217 kts | 185° |
| 2026-05-06 18:56 | 39.05353 | -77.45808 | 1890 ft | 215 kts | 184° |
| 2026-05-06 18:56 | 39.03927 | -77.45822 | 1616 ft | 191 kts | 183° |
| 2026-05-06 18:56 | 39.02685 | -77.45837 | 1390 ft | 166 kts | 184° |
| 2026-05-06 18:57 | 39.01594 | -77.45854 | 1228 ft | 147 kts | 186° |
| 2026-05-06 18:57 | 39.00634 | -77.45868 | 1042 ft | 129 kts | 184° |
| 2026-05-06 18:57 | 38.99764 | -77.45882 | 850 ft | 125 kts | 185° |
| 2026-05-06 18:57 | 38.98839 | -77.45897 | 741 ft | 129 kts | 184° |
| 2026-05-06 18:58 | 38.97954 | -77.45912 | 580 ft | 131 kts | 184° |
| 2026-05-06 18:58 | 38.97048 | -77.45932 | 375 ft | 125 kts | 184° |
| 2026-05-06 18:58 | 38.96267 | -77.45945 | 323 ft | 84 kts | 180° |
| 2026-05-06 18:58 | 38.95828 | -77.45952 | 323 ft | 56 kts | 180° |
| 2026-05-06 18:59 | 38.95522 | -77.45913 | 323 ft | 31 kts | 162° |
| 2026-05-06 18:59 | 38.95361 | -77.45814 | 323 ft | 21 kts | 152° |
| 2026-05-06 18:59 | 38.95321 | -77.45788 | 323 ft | 0 kts | 151° |
| 2026-05-06 19:00 | 38.95310 | -77.45780 | 323 ft | 4 kts | 151° |
| 2026-05-06 19:00 | 38.95265 | -77.45752 | 323 ft | 9 kts | 160° |
| 2026-05-06 19:00 | 38.95189 | -77.45728 | 323 ft | 12 kts | 168° |
| 2026-05-06 19:01 | 38.95090 | -77.45716 | 323 ft | 16 kts | 178° |
| 2026-05-06 19:01 | 38.94974 | -77.45716 | 323 ft | 16 kts | 178° |
| 2026-05-06 19:01 | 38.94857 | -77.45715 | 323 ft | 16 kts | 181° |
| 2026-05-06 19:01 | 38.94742 | -77.45718 | 323 ft | 16 kts | 180° |
| 2026-05-06 19:02 | 38.94661 | -77.45647 | 323 ft | 14 kts | 96° |
| 2026-05-06 19:02 | 38.94668 | -77.45521 | 323 ft | 13 kts | 92° |
| 2026-05-06 19:02 | 38.94668 | -77.45408 | 323 ft | 12 kts | 91° |
| 2026-05-06 19:02 | 38.94666 | -77.45300 | 323 ft | 11 kts | 91° |
| 2026-05-06 19:03 | 38.94666 | -77.45196 | 323 ft | 11 kts | 89° |
| 2026-05-06 19:03 | 38.94667 | -77.45092 | 323 ft | 11 kts | 90° |
| 2026-05-06 19:03 | 38.94665 | -77.44989 | 323 ft | 11 kts | 91° |
| 2026-05-06 19:03 | 38.94632 | -77.44942 | 323 ft | 7 kts | 184° |
| 2026-05-06 19:04 | 38.94599 | -77.44948 | 323 ft | 0 kts | 188° |